sensor_id;sensor_type;location;lat;lon;timestamp;P1;durP1;ratioP1;P2;durP2;ratioP2
2620;SDS011;1320;48.128;11.592;2022-12-20T00:00:49;6.82;;;4.15;;
2620;SDS011;1320;48.128;11.592;2022-12-20T00:03:15;6.30;;;4.00;;
2620;SDS011;1320;48.128;11.592;2022-12-20T00:05:41;7.97;;;4.25;;
2620;SDS011;1320;48.128;11.592;2022-12-20T00:08:08;9.13;;;4.50;;
2620;SDS011;1320;48.128;11.592;2022-12-20T00:10:38;3.85;;;2.88;;
2620;SDS011;1320;48.128;11.592;2022-12-20T00:13:05;3.75;;;3.00;;
2620;SDS011;1320;48.128;11.592;2022-12-20T00:15:31;6.77;;;3.47;;
2620;SDS011;1320;48.128;11.592;2022-12-20T00:17:57;2.90;;;2.70;;
2620;SDS011;1320;48.128;11.592;2022-12-20T00:20:23;4.87;;;3.37;;
2620;SDS011;1320;48.128;11.592;2022-12-20T00:22:49;6.07;;;3.10;;
2620;SDS011;1320;48.128;11.592;2022-12-20T00:25:15;4.23;;;3.60;;
2620;SDS011;1320;48.128;11.592;2022-12-20T00:27:41;3.00;;;2.53;;
2620;SDS011;1320;48.128;11.592;2022-12-20T00:30:06;5.90;;;3.07;;
2620;SDS011;1320;48.128;11.592;2022-12-20T00:32:32;5.97;;;2.95;;
2620;SDS011;1320;48.128;11.592;2022-12-20T00:34:58;3.03;;;2.70;;
2620;SDS011;1320;48.128;11.592;2022-12-20T00:37:24;5.17;;;3.10;;
2620;SDS011;1320;48.128;11.592;2022-12-20T00:39:50;4.43;;;3.50;;
2620;SDS011;1320;48.128;11.592;2022-12-20T00:42:15;2.63;;;2.43;;
2620;SDS011;1320;48.128;11.592;2022-12-20T00:44:41;10.07;;;3.33;;
2620;SDS011;1320;48.128;11.592;2022-12-20T00:47:07;6.67;;;4.80;;
2620;SDS011;1320;48.128;11.592;2022-12-20T00:49:32;6.37;;;2.80;;
2620;SDS011;1320;48.128;11.592;2022-12-20T00:51:58;2.87;;;2.60;;
2620;SDS011;1320;48.128;11.592;2022-12-20T00:54:23;4.67;;;2.30;;
2620;SDS011;1320;48.128;11.592;2022-12-20T00:56:49;3.53;;;2.67;;
2620;SDS011;1320;48.128;11.592;2022-12-20T00:59:15;4.10;;;3.13;;
2620;SDS011;1320;48.128;11.592;2022-12-20T01:01:40;4.80;;;2.60;;
2620;SDS011;1320;48.128;11.592;2022-12-20T01:04:06;4.17;;;3.70;;
2620;SDS011;1320;48.128;11.592;2022-12-20T01:06:32;3.53;;;3.00;;
2620;SDS011;1320;48.128;11.592;2022-12-20T01:08:58;4.45;;;2.60;;
2620;SDS011;1320;48.128;11.592;2022-12-20T01:11:25;3.63;;;2.13;;
2620;SDS011;1320;48.128;11.592;2022-12-20T01:13:53;4.03;;;2.70;;
2620;SDS011;1320;48.128;11.592;2022-12-20T01:16:22;2.60;;;2.08;;
2620;SDS011;1320;48.128;11.592;2022-12-20T01:18:50;2.70;;;2.50;;
2620;SDS011;1320;48.128;11.592;2022-12-20T01:21:16;4.68;;;2.83;;
2620;SDS011;1320;48.128;11.592;2022-12-20T01:23:43;3.25;;;2.60;;
2620;SDS011;1320;48.128;11.592;2022-12-20T01:26:13;3.53;;;2.73;;
2620;SDS011;1320;48.128;11.592;2022-12-20T01:28:42;3.75;;;3.10;;
2620;SDS011;1320;48.128;11.592;2022-12-20T01:31:10;3.90;;;2.58;;
2620;SDS011;1320;48.128;11.592;2022-12-20T01:33:37;2.05;;;1.75;;
2620;SDS011;1320;48.128;11.592;2022-12-20T01:36:04;2.30;;;2.10;;
2620;SDS011;1320;48.128;11.592;2022-12-20T01:38:32;9.30;;;2.58;;
2620;SDS011;1320;48.128;11.592;2022-12-20T01:40:59;2.40;;;2.00;;
2620;SDS011;1320;48.128;11.592;2022-12-20T01:43:43;5.15;;;2.55;;
2620;SDS011;1320;48.128;11.592;2022-12-20T01:46:12;3.17;;;2.80;;
2620;SDS011;1320;48.128;11.592;2022-12-20T01:48:37;3.20;;;2.13;;
2620;SDS011;1320;48.128;11.592;2022-12-20T01:51:05;4.22;;;2.25;;
2620;SDS011;1320;48.128;11.592;2022-12-20T01:53:31;6.70;;;2.90;;
2620;SDS011;1320;48.128;11.592;2022-12-20T01:55:58;4.90;;;2.77;;
2620;SDS011;1320;48.128;11.592;2022-12-20T01:58:27;4.13;;;3.20;;
2620;SDS011;1320;48.128;11.592;2022-12-20T02:00:54;3.60;;;2.60;;
2620;SDS011;1320;48.128;11.592;2022-12-20T02:03:20;2.63;;;2.43;;
2620;SDS011;1320;48.128;11.592;2022-12-20T02:05:45;1.93;;;1.70;;
2620;SDS011;1320;48.128;11.592;2022-12-20T02:08:15;2.03;;;1.90;;
2620;SDS011;1320;48.128;11.592;2022-12-20T02:13:46;3.67;;;2.75;;
2620;SDS011;1320;48.128;11.592;2022-12-20T02:16:45;3.28;;;2.42;;
2620;SDS011;1320;48.128;11.592;2022-12-20T02:25:45;2.45;;;2.17;;
2620;SDS011;1320;48.128;11.592;2022-12-20T02:30:15;2.63;;;2.10;;
2620;SDS011;1320;48.128;11.592;2022-12-20T02:32:54;2.03;;;1.80;;
2620;SDS011;1320;48.128;11.592;2022-12-20T02:35:26;2.85;;;1.75;;
2620;SDS011;1320;48.128;11.592;2022-12-20T02:37:55;2.05;;;1.85;;
2620;SDS011;1320;48.128;11.592;2022-12-20T02:40:24;2.60;;;2.10;;
2620;SDS011;1320;48.128;11.592;2022-12-20T02:42:54;2.72;;;2.00;;
2620;SDS011;1320;48.128;11.592;2022-12-20T02:45:25;1.50;;;1.40;;
2620;SDS011;1320;48.128;11.592;2022-12-20T02:50:57;3.35;;;2.00;;
2620;SDS011;1320;48.128;11.592;2022-12-20T02:53:18;3.17;;;2.03;;
2620;SDS011;1320;48.128;11.592;2022-12-20T02:55:49;3.30;;;1.70;;
2620;SDS011;1320;48.128;11.592;2022-12-20T02:58:50;5.07;;;1.90;;
2620;SDS011;1320;48.128;11.592;2022-12-20T03:01:23;5.05;;;2.10;;
2620;SDS011;1320;48.128;11.592;2022-12-20T03:03:54;9.25;;;1.90;;
2620;SDS011;1320;48.128;11.592;2022-12-20T03:06:21;2.72;;;1.90;;
2620;SDS011;1320;48.128;11.592;2022-12-20T03:08:48;2.65;;;1.65;;
2620;SDS011;1320;48.128;11.592;2022-12-20T03:11:14;2.80;;;1.77;;
2620;SDS011;1320;48.128;11.592;2022-12-20T03:13:40;3.08;;;1.60;;
2620;SDS011;1320;48.128;11.592;2022-12-20T03:16:06;2.30;;;1.40;;
2620;SDS011;1320;48.128;11.592;2022-12-20T03:18:33;2.45;;;1.70;;
2620;SDS011;1320;48.128;11.592;2022-12-20T03:20:59;3.37;;;1.73;;
2620;SDS011;1320;48.128;11.592;2022-12-20T03:23:24;3.10;;;2.60;;
2620;SDS011;1320;48.128;11.592;2022-12-20T03:25:50;1.53;;;1.33;;
2620;SDS011;1320;48.128;11.592;2022-12-20T03:28:15;3.47;;;1.63;;
2620;SDS011;1320;48.128;11.592;2022-12-20T03:30:41;2.90;;;1.83;;
2620;SDS011;1320;48.128;11.592;2022-12-20T03:33:07;3.60;;;1.60;;
2620;SDS011;1320;48.128;11.592;2022-12-20T03:35:32;2.30;;;1.80;;
2620;SDS011;1320;48.128;11.592;2022-12-20T03:38:00;2.13;;;1.80;;
2620;SDS011;1320;48.128;11.592;2022-12-20T03:40:26;2.45;;;1.52;;
2620;SDS011;1320;48.128;11.592;2022-12-20T03:42:51;3.27;;;2.00;;
2620;SDS011;1320;48.128;11.592;2022-12-20T03:45:17;1.57;;;1.47;;
2620;SDS011;1320;48.128;11.592;2022-12-20T03:47:43;1.90;;;1.13;;
2620;SDS011;1320;48.128;11.592;2022-12-20T03:50:08;3.33;;;1.70;;
2620;SDS011;1320;48.128;11.592;2022-12-20T03:52:35;1.90;;;1.70;;
2620;SDS011;1320;48.128;11.592;2022-12-20T03:55:00;4.17;;;1.60;;
2620;SDS011;1320;48.128;11.592;2022-12-20T03:57:27;2.58;;;1.77;;
2620;SDS011;1320;48.128;11.592;2022-12-20T03:59:53;1.30;;;1.17;;
2620;SDS011;1320;48.128;11.592;2022-12-20T04:02:19;4.33;;;2.43;;
2620;SDS011;1320;48.128;11.592;2022-12-20T04:04:45;2.20;;;1.90;;
2620;SDS011;1320;48.128;11.592;2022-12-20T04:07:11;2.53;;;1.50;;
2620;SDS011;1320;48.128;11.592;2022-12-20T04:09:37;1.57;;;1.33;;
2620;SDS011;1320;48.128;11.592;2022-12-20T04:12:02;1.70;;;1.60;;
2620;SDS011;1320;48.128;11.592;2022-12-20T04:14:28;2.20;;;1.60;;
2620;SDS011;1320;48.128;11.592;2022-12-20T04:16:54;3.07;;;1.97;;
2620;SDS011;1320;48.128;11.592;2022-12-20T04:19:19;1.40;;;1.30;;
2620;SDS011;1320;48.128;11.592;2022-12-20T04:21:45;2.83;;;1.63;;
2620;SDS011;1320;48.128;11.592;2022-12-20T04:24:11;2.83;;;1.50;;
2620;SDS011;1320;48.128;11.592;2022-12-20T04:26:36;3.40;;;1.57;;
2620;SDS011;1320;48.128;11.592;2022-12-20T04:29:02;2.23;;;0.90;;
2620;SDS011;1320;48.128;11.592;2022-12-20T04:31:28;1.47;;;1.00;;
2620;SDS011;1320;48.128;11.592;2022-12-20T04:33:53;2.27;;;1.70;;
2620;SDS011;1320;48.128;11.592;2022-12-20T04:36:19;1.80;;;1.40;;
2620;SDS011;1320;48.128;11.592;2022-12-20T04:38:45;1.67;;;1.45;;
2620;SDS011;1320;48.128;11.592;2022-12-20T04:41:11;2.23;;;1.73;;
2620;SDS011;1320;48.128;11.592;2022-12-20T04:43:47;1.65;;;1.10;;
2620;SDS011;1320;48.128;11.592;2022-12-20T04:46:13;1.75;;;1.20;;
2620;SDS011;1320;48.128;11.592;2022-12-20T04:48:40;1.80;;;1.57;;
2620;SDS011;1320;48.128;11.592;2022-12-20T04:51:05;6.07;;;1.30;;
2620;SDS011;1320;48.128;11.592;2022-12-20T04:53:31;1.67;;;1.17;;
2620;SDS011;1320;48.128;11.592;2022-12-20T04:56:22;1.70;;;1.42;;
2620;SDS011;1320;48.128;11.592;2022-12-20T04:58:51;1.60;;;1.25;;
2620;SDS011;1320;48.128;11.592;2022-12-20T05:01:18;1.83;;;1.27;;
2620;SDS011;1320;48.128;11.592;2022-12-20T05:03:44;1.50;;;1.30;;
2620;SDS011;1320;48.128;11.592;2022-12-20T05:06:10;1.92;;;1.30;;
2620;SDS011;1320;48.128;11.592;2022-12-20T05:11:06;3.08;;;1.60;;
2620;SDS011;1320;48.128;11.592;2022-12-20T05:13:32;3.60;;;2.03;;
2620;SDS011;1320;48.128;11.592;2022-12-20T05:15:58;2.60;;;1.60;;
2620;SDS011;1320;48.128;11.592;2022-12-20T05:18:25;1.40;;;1.20;;
2620;SDS011;1320;48.128;11.592;2022-12-20T05:20:58;2.53;;;1.08;;
2620;SDS011;1320;48.128;11.592;2022-12-20T05:23:44;1.92;;;1.70;;
2620;SDS011;1320;48.128;11.592;2022-12-20T05:26:30;2.40;;;1.40;;
2620;SDS011;1320;48.128;11.592;2022-12-20T05:29:00;1.38;;;1.23;;
2620;SDS011;1320;48.128;11.592;2022-12-20T05:31:26;2.20;;;1.40;;
2620;SDS011;1320;48.128;11.592;2022-12-20T05:33:52;3.10;;;1.27;;
2620;SDS011;1320;48.128;11.592;2022-12-20T05:36:18;1.30;;;1.17;;
2620;SDS011;1320;48.128;11.592;2022-12-20T05:38:46;2.33;;;1.40;;
2620;SDS011;1320;48.128;11.592;2022-12-20T05:41:11;2.78;;;1.70;;
2620;SDS011;1320;48.128;11.592;2022-12-20T05:43:37;2.13;;;1.20;;
2620;SDS011;1320;48.128;11.592;2022-12-20T05:46:03;6.47;;;1.50;;
2620;SDS011;1320;48.128;11.592;2022-12-20T05:48:28;2.40;;;1.97;;
2620;SDS011;1320;48.128;11.592;2022-12-20T05:50:54;1.77;;;1.10;;
2620;SDS011;1320;48.128;11.592;2022-12-20T05:53:20;2.77;;;1.67;;
2620;SDS011;1320;48.128;11.592;2022-12-20T05:55:47;2.30;;;1.20;;
2620;SDS011;1320;48.128;11.592;2022-12-20T05:58:13;1.30;;;1.02;;
2620;SDS011;1320;48.128;11.592;2022-12-20T06:00:40;4.05;;;2.53;;
2620;SDS011;1320;48.128;11.592;2022-12-20T06:03:07;2.10;;;1.60;;
2620;SDS011;1320;48.128;11.592;2022-12-20T06:05:34;1.50;;;1.10;;
2620;SDS011;1320;48.128;11.592;2022-12-20T06:08:01;2.00;;;1.40;;
2620;SDS011;1320;48.128;11.592;2022-12-20T06:10:27;1.63;;;1.17;;
2620;SDS011;1320;48.128;11.592;2022-12-20T06:12:53;2.90;;;1.23;;
2620;SDS011;1320;48.128;11.592;2022-12-20T06:15:18;1.90;;;1.60;;
2620;SDS011;1320;48.128;11.592;2022-12-20T06:17:44;2.60;;;1.33;;
2620;SDS011;1320;48.128;11.592;2022-12-20T06:20:10;1.53;;;1.07;;
2620;SDS011;1320;48.128;11.592;2022-12-20T06:22:36;4.07;;;1.90;;
2620;SDS011;1320;48.128;11.592;2022-12-20T06:25:02;2.10;;;1.73;;
2620;SDS011;1320;48.128;11.592;2022-12-20T06:27:29;2.42;;;1.75;;
2620;SDS011;1320;48.128;11.592;2022-12-20T06:29:55;3.33;;;1.93;;
2620;SDS011;1320;48.128;11.592;2022-12-20T06:32:20;2.70;;;1.63;;
2620;SDS011;1320;48.128;11.592;2022-12-20T06:34:46;3.20;;;2.00;;
2620;SDS011;1320;48.128;11.592;2022-12-20T06:37:12;6.57;;;3.07;;
2620;SDS011;1320;48.128;11.592;2022-12-20T06:39:37;4.17;;;2.70;;
2620;SDS011;1320;48.128;11.592;2022-12-20T06:42:03;2.60;;;2.23;;
2620;SDS011;1320;48.128;11.592;2022-12-20T06:44:29;3.65;;;2.83;;
2620;SDS011;1320;48.128;11.592;2022-12-20T06:46:55;3.97;;;1.47;;
2620;SDS011;1320;48.128;11.592;2022-12-20T06:49:20;3.30;;;2.30;;
2620;SDS011;1320;48.128;11.592;2022-12-20T06:51:46;2.73;;;1.97;;
2620;SDS011;1320;48.128;11.592;2022-12-20T06:54:12;3.38;;;2.03;;
2620;SDS011;1320;48.128;11.592;2022-12-20T06:56:38;4.10;;;2.50;;
2620;SDS011;1320;48.128;11.592;2022-12-20T06:59:04;4.23;;;2.20;;
2620;SDS011;1320;48.128;11.592;2022-12-20T07:01:30;2.00;;;1.70;;
2620;SDS011;1320;48.128;11.592;2022-12-20T07:03:56;2.97;;;1.83;;
2620;SDS011;1320;48.128;11.592;2022-12-20T07:06:22;2.00;;;1.30;;
2620;SDS011;1320;48.128;11.592;2022-12-20T07:08:48;1.57;;;1.23;;
2620;SDS011;1320;48.128;11.592;2022-12-20T07:11:14;2.20;;;1.67;;
2620;SDS011;1320;48.128;11.592;2022-12-20T07:13:39;1.70;;;1.43;;
2620;SDS011;1320;48.128;11.592;2022-12-20T07:16:05;2.27;;;1.57;;
2620;SDS011;1320;48.128;11.592;2022-12-20T07:18:31;3.22;;;1.50;;
2620;SDS011;1320;48.128;11.592;2022-12-20T07:20:59;4.03;;;1.98;;
2620;SDS011;1320;48.128;11.592;2022-12-20T07:23:26;2.50;;;2.17;;
2620;SDS011;1320;48.128;11.592;2022-12-20T07:25:53;2.45;;;1.95;;
2620;SDS011;1320;48.128;11.592;2022-12-20T07:28:20;3.17;;;1.65;;
2620;SDS011;1320;48.128;11.592;2022-12-20T07:30:46;2.70;;;1.90;;
2620;SDS011;1320;48.128;11.592;2022-12-20T07:33:11;3.40;;;2.13;;
2620;SDS011;1320;48.128;11.592;2022-12-20T07:35:37;1.87;;;1.67;;
2620;SDS011;1320;48.128;11.592;2022-12-20T07:38:03;5.60;;;2.17;;
2620;SDS011;1320;48.128;11.592;2022-12-20T07:40:28;3.17;;;2.20;;
2620;SDS011;1320;48.128;11.592;2022-12-20T07:42:54;3.40;;;2.07;;
2620;SDS011;1320;48.128;11.592;2022-12-20T07:45:20;2.90;;;1.90;;
2620;SDS011;1320;48.128;11.592;2022-12-20T07:47:45;2.23;;;1.80;;
2620;SDS011;1320;48.128;11.592;2022-12-20T07:50:11;2.20;;;1.70;;
2620;SDS011;1320;48.128;11.592;2022-12-20T07:52:37;3.10;;;1.70;;
2620;SDS011;1320;48.128;11.592;2022-12-20T07:55:04;4.88;;;1.73;;
2620;SDS011;1320;48.128;11.592;2022-12-20T07:57:36;3.50;;;2.50;;
2620;SDS011;1320;48.128;11.592;2022-12-20T08:00:10;5.28;;;1.88;;
2620;SDS011;1320;48.128;11.592;2022-12-20T08:02:41;3.05;;;1.90;;
2620;SDS011;1320;48.128;11.592;2022-12-20T08:05:11;3.78;;;1.95;;
2620;SDS011;1320;48.128;11.592;2022-12-20T08:07:38;3.75;;;1.85;;
2620;SDS011;1320;48.128;11.592;2022-12-20T08:10:06;3.95;;;2.30;;
2620;SDS011;1320;48.128;11.592;2022-12-20T08:12:33;2.08;;;1.23;;
2620;SDS011;1320;48.128;11.592;2022-12-20T08:14:59;4.93;;;2.57;;
2620;SDS011;1320;48.128;11.592;2022-12-20T08:17:25;6.60;;;3.10;;
2620;SDS011;1320;48.128;11.592;2022-12-20T08:19:51;3.73;;;2.17;;
2620;SDS011;1320;48.128;11.592;2022-12-20T08:22:17;4.03;;;2.50;;
2620;SDS011;1320;48.128;11.592;2022-12-20T08:24:43;7.13;;;2.80;;
2620;SDS011;1320;48.128;11.592;2022-12-20T08:27:09;3.92;;;2.67;;
2620;SDS011;1320;48.128;11.592;2022-12-20T08:29:35;3.40;;;3.00;;
2620;SDS011;1320;48.128;11.592;2022-12-20T08:32:00;3.23;;;2.37;;
2620;SDS011;1320;48.128;11.592;2022-12-20T08:34:26;4.30;;;3.00;;
2620;SDS011;1320;48.128;11.592;2022-12-20T08:36:52;7.63;;;3.27;;
2620;SDS011;1320;48.128;11.592;2022-12-20T08:39:18;3.50;;;2.57;;
2620;SDS011;1320;48.128;11.592;2022-12-20T08:41:44;3.53;;;3.10;;
2620;SDS011;1320;48.128;11.592;2022-12-20T08:44:09;4.37;;;2.93;;
2620;SDS011;1320;48.128;11.592;2022-12-20T08:46:35;5.10;;;2.63;;
2620;SDS011;1320;48.128;11.592;2022-12-20T08:51:32;4.53;;;2.90;;
2620;SDS011;1320;48.128;11.592;2022-12-20T08:53:58;5.33;;;2.67;;
2620;SDS011;1320;48.128;11.592;2022-12-20T08:56:24;6.20;;;3.50;;
2620;SDS011;1320;48.128;11.592;2022-12-20T08:58:49;5.20;;;2.70;;
2620;SDS011;1320;48.128;11.592;2022-12-20T09:01:16;6.37;;;2.67;;
2620;SDS011;1320;48.128;11.592;2022-12-20T09:03:43;4.50;;;2.88;;
2620;SDS011;1320;48.128;11.592;2022-12-20T09:06:11;5.00;;;2.70;;
2620;SDS011;1320;48.128;11.592;2022-12-20T09:08:39;4.40;;;2.60;;
2620;SDS011;1320;48.128;11.592;2022-12-20T09:11:05;4.32;;;2.50;;
2620;SDS011;1320;48.128;11.592;2022-12-20T09:13:33;4.28;;;2.83;;
2620;SDS011;1320;48.128;11.592;2022-12-20T09:15:59;3.50;;;2.03;;
2620;SDS011;1320;48.128;11.592;2022-12-20T09:18:26;4.45;;;2.90;;
2620;SDS011;1320;48.128;11.592;2022-12-20T09:20:51;4.00;;;2.60;;
2620;SDS011;1320;48.128;11.592;2022-12-20T09:23:17;4.00;;;1.97;;
2620;SDS011;1320;48.128;11.592;2022-12-20T09:25:43;3.40;;;2.30;;
2620;SDS011;1320;48.128;11.592;2022-12-20T09:28:09;2.40;;;1.85;;
2620;SDS011;1320;48.128;11.592;2022-12-20T09:30:34;3.10;;;2.30;;
2620;SDS011;1320;48.128;11.592;2022-12-20T09:33:00;1.70;;;1.60;;
2620;SDS011;1320;48.128;11.592;2022-12-20T09:35:25;4.97;;;1.83;;
2620;SDS011;1320;48.128;11.592;2022-12-20T09:37:51;2.60;;;2.07;;
2620;SDS011;1320;48.128;11.592;2022-12-20T09:40:17;2.50;;;2.10;;
2620;SDS011;1320;48.128;11.592;2022-12-20T09:42:46;2.10;;;1.90;;
2620;SDS011;1320;48.128;11.592;2022-12-20T09:45:23;3.08;;;2.55;;
2620;SDS011;1320;48.128;11.592;2022-12-20T09:47:53;3.00;;;2.40;;
2620;SDS011;1320;48.128;11.592;2022-12-20T09:50:20;2.95;;;2.63;;
2620;SDS011;1320;48.128;11.592;2022-12-20T10:01:10;4.05;;;2.95;;
2620;SDS011;1320;48.128;11.592;2022-12-20T10:03:45;3.38;;;2.63;;
2620;SDS011;1320;48.128;11.592;2022-12-20T10:06:17;3.10;;;2.03;;
2620;SDS011;1320;48.128;11.592;2022-12-20T10:08:52;3.80;;;2.08;;
2620;SDS011;1320;48.128;11.592;2022-12-20T10:14:04;3.10;;;2.10;;
2620;SDS011;1320;48.128;11.592;2022-12-20T10:16:46;3.65;;;2.60;;
2620;SDS011;1320;48.128;11.592;2022-12-20T10:22:18;3.40;;;2.30;;
2620;SDS011;1320;48.128;11.592;2022-12-20T10:24:52;4.85;;;2.67;;
2620;SDS011;1320;48.128;11.592;2022-12-20T10:27:25;2.90;;;2.20;;
2620;SDS011;1320;48.128;11.592;2022-12-20T10:29:51;4.57;;;2.43;;
2620;SDS011;1320;48.128;11.592;2022-12-20T10:32:21;3.33;;;2.00;;
2620;SDS011;1320;48.128;11.592;2022-12-20T10:34:52;6.97;;;2.60;;
2620;SDS011;1320;48.128;11.592;2022-12-20T10:37:55;4.20;;;2.60;;
2620;SDS011;1320;48.128;11.592;2022-12-20T10:40:26;5.10;;;2.60;;
2620;SDS011;1320;48.128;11.592;2022-12-20T10:42:52;3.03;;;2.17;;
2620;SDS011;1320;48.128;11.592;2022-12-20T10:47:47;3.20;;;2.40;;
2620;SDS011;1320;48.128;11.592;2022-12-20T10:50:19;7.50;;;2.60;;
2620;SDS011;1320;48.128;11.592;2022-12-20T10:55:40;2.93;;;2.07;;
2620;SDS011;1320;48.128;11.592;2022-12-20T10:58:14;9.97;;;3.30;;
2620;SDS011;1320;48.128;11.592;2022-12-20T11:00:46;4.60;;;3.17;;
2620;SDS011;1320;48.128;11.592;2022-12-20T11:03:15;2.90;;;2.13;;
2620;SDS011;1320;48.128;11.592;2022-12-20T11:05:53;3.87;;;3.03;;
2620;SDS011;1320;48.128;11.592;2022-12-20T11:08:22;5.47;;;3.37;;
2620;SDS011;1320;48.128;11.592;2022-12-20T11:10:49;3.90;;;3.03;;
2620;SDS011;1320;48.128;11.592;2022-12-20T11:13:20;4.67;;;3.07;;
2620;SDS011;1320;48.128;11.592;2022-12-20T11:15:48;5.33;;;3.17;;
2620;SDS011;1320;48.128;11.592;2022-12-20T11:18:31;3.60;;;2.70;;
2620;SDS011;1320;48.128;11.592;2022-12-20T11:29:19;5.23;;;3.30;;
2620;SDS011;1320;48.128;11.592;2022-12-20T11:42:51;4.90;;;3.73;;
2620;SDS011;1320;48.128;11.592;2022-12-20T11:49:14;3.67;;;2.20;;
2620;SDS011;1320;48.128;11.592;2022-12-20T11:51:46;6.10;;;2.83;;
2620;SDS011;1320;48.128;11.592;2022-12-20T11:54:18;2.87;;;2.23;;
2620;SDS011;1320;48.128;11.592;2022-12-20T11:57:09;4.83;;;2.97;;
2620;SDS011;1320;48.128;11.592;2022-12-20T12:00:10;4.60;;;3.00;;
2620;SDS011;1320;48.128;11.592;2022-12-20T12:02:52;3.80;;;2.77;;
2620;SDS011;1320;48.128;11.592;2022-12-20T12:08:05;3.73;;;2.57;;
2620;SDS011;1320;48.128;11.592;2022-12-20T12:10:39;4.30;;;2.13;;
2620;SDS011;1320;48.128;11.592;2022-12-20T12:13:17;3.63;;;2.80;;
2620;SDS011;1320;48.128;11.592;2022-12-20T12:16:08;4.20;;;2.00;;
2620;SDS011;1320;48.128;11.592;2022-12-20T12:18:35;4.20;;;2.60;;
2620;SDS011;1320;48.128;11.592;2022-12-20T12:26:35;5.30;;;2.73;;
2620;SDS011;1320;48.128;11.592;2022-12-20T12:31:44;4.00;;;2.70;;
2620;SDS011;1320;48.128;11.592;2022-12-20T12:36:39;3.73;;;2.47;;
2620;SDS011;1320;48.128;11.592;2022-12-20T12:47:30;6.20;;;4.73;;
2620;SDS011;1320;48.128;11.592;2022-12-20T12:50:02;5.30;;;2.80;;
2620;SDS011;1320;48.128;11.592;2022-12-20T12:58:11;5.63;;;4.10;;
2620;SDS011;1320;48.128;11.592;2022-12-20T13:01:00;7.60;;;3.97;;
2620;SDS011;1320;48.128;11.592;2022-12-20T13:11:28;6.50;;;4.37;;
2620;SDS011;1320;48.128;11.592;2022-12-20T13:16:48;11.50;;;3.73;;
2620;SDS011;1320;48.128;11.592;2022-12-20T13:19:15;5.93;;;3.67;;
2620;SDS011;1320;48.128;11.592;2022-12-20T13:22:24;3.87;;;2.80;;
2620;SDS011;1320;48.128;11.592;2022-12-20T13:27:15;5.80;;;3.60;;
2620;SDS011;1320;48.128;11.592;2022-12-20T13:43:13;5.57;;;4.80;;
2620;SDS011;1320;48.128;11.592;2022-12-20T13:45:44;6.23;;;4.03;;
2620;SDS011;1320;48.128;11.592;2022-12-20T13:49:02;4.30;;;3.27;;
2620;SDS011;1320;48.128;11.592;2022-12-20T13:51:03;8.90;;;4.37;;
2620;SDS011;1320;48.128;11.592;2022-12-20T13:53:31;6.60;;;2.87;;
2620;SDS011;1320;48.128;11.592;2022-12-20T13:55:57;4.23;;;3.13;;
2620;SDS011;1320;48.128;11.592;2022-12-20T13:58:43;5.47;;;2.97;;
2620;SDS011;1320;48.128;11.592;2022-12-20T14:01:10;4.20;;;3.50;;
2620;SDS011;1320;48.128;11.592;2022-12-20T14:03:41;4.93;;;3.03;;
2620;SDS011;1320;48.128;11.592;2022-12-20T14:06:10;4.87;;;3.80;;
2620;SDS011;1320;48.128;11.592;2022-12-20T14:08:40;5.80;;;4.23;;
2620;SDS011;1320;48.128;11.592;2022-12-20T14:11:29;8.60;;;5.17;;
2620;SDS011;1320;48.128;11.592;2022-12-20T14:13:58;5.83;;;4.20;;
2620;SDS011;1320;48.128;11.592;2022-12-20T14:16:26;9.17;;;4.30;;
2620;SDS011;1320;48.128;11.592;2022-12-20T14:21:22;5.63;;;4.00;;
2620;SDS011;1320;48.128;11.592;2022-12-20T14:23:50;9.73;;;5.80;;
2620;SDS011;1320;48.128;11.592;2022-12-20T14:26:23;7.63;;;4.93;;
2620;SDS011;1320;48.128;11.592;2022-12-20T14:28:51;5.87;;;4.37;;
2620;SDS011;1320;48.128;11.592;2022-12-20T14:36:39;9.17;;;4.70;;
2620;SDS011;1320;48.128;11.592;2022-12-20T14:39:33;6.23;;;4.33;;
2620;SDS011;1320;48.128;11.592;2022-12-20T14:44:32;9.97;;;5.00;;
2620;SDS011;1320;48.128;11.592;2022-12-20T14:47:21;7.37;;;4.80;;
2620;SDS011;1320;48.128;11.592;2022-12-20T14:49:59;5.00;;;3.87;;
2620;SDS011;1320;48.128;11.592;2022-12-20T14:54:59;5.90;;;4.30;;
2620;SDS011;1320;48.128;11.592;2022-12-20T15:00:04;6.93;;;4.57;;
2620;SDS011;1320;48.128;11.592;2022-12-20T15:10:35;5.23;;;4.73;;
2620;SDS011;1320;48.128;11.592;2022-12-20T15:13:01;8.50;;;6.23;;
2620;SDS011;1320;48.128;11.592;2022-12-20T15:15:27;6.73;;;4.70;;
2620;SDS011;1320;48.128;11.592;2022-12-20T15:17:53;6.30;;;4.37;;
2620;SDS011;1320;48.128;11.592;2022-12-20T15:20:18;5.17;;;3.80;;
2620;SDS011;1320;48.128;11.592;2022-12-20T15:22:45;5.07;;;3.87;;
2620;SDS011;1320;48.128;11.592;2022-12-20T15:25:14;7.80;;;4.97;;
2620;SDS011;1320;48.128;11.592;2022-12-20T15:27:41;8.00;;;4.00;;
2620;SDS011;1320;48.128;11.592;2022-12-20T15:30:11;6.40;;;4.40;;
2620;SDS011;1320;48.128;11.592;2022-12-20T15:32:40;12.20;;;5.50;;
2620;SDS011;1320;48.128;11.592;2022-12-20T15:35:13;6.40;;;4.33;;
2620;SDS011;1320;48.128;11.592;2022-12-20T15:37:39;4.97;;;4.47;;
2620;SDS011;1320;48.128;11.592;2022-12-20T15:40:06;7.10;;;4.60;;
2620;SDS011;1320;48.128;11.592;2022-12-20T15:42:37;6.10;;;4.47;;
2620;SDS011;1320;48.128;11.592;2022-12-20T15:45:05;7.05;;;4.72;;
2620;SDS011;1320;48.128;11.592;2022-12-20T15:47:36;7.40;;;4.87;;
2620;SDS011;1320;48.128;11.592;2022-12-20T15:50:02;9.67;;;5.73;;
2620;SDS011;1320;48.128;11.592;2022-12-20T15:52:28;7.60;;;4.60;;
2620;SDS011;1320;48.128;11.592;2022-12-20T15:54:55;7.10;;;4.40;;
2620;SDS011;1320;48.128;11.592;2022-12-20T15:57:21;6.73;;;4.53;;
2620;SDS011;1320;48.128;11.592;2022-12-20T15:59:46;9.30;;;4.43;;
2620;SDS011;1320;48.128;11.592;2022-12-20T16:02:19;5.20;;;4.50;;
2620;SDS011;1320;48.128;11.592;2022-12-20T16:04:47;7.25;;;4.80;;
2620;SDS011;1320;48.128;11.592;2022-12-20T16:07:12;7.67;;;5.37;;
2620;SDS011;1320;48.128;11.592;2022-12-20T16:09:38;9.10;;;6.20;;
2620;SDS011;1320;48.128;11.592;2022-12-20T16:12:07;6.30;;;4.53;;
2620;SDS011;1320;48.128;11.592;2022-12-20T16:14:49;5.50;;;4.30;;
2620;SDS011;1320;48.128;11.592;2022-12-20T16:17:15;5.05;;;4.30;;
2620;SDS011;1320;48.128;11.592;2022-12-20T16:19:41;6.20;;;4.37;;
2620;SDS011;1320;48.128;11.592;2022-12-20T16:22:18;9.43;;;6.43;;
2620;SDS011;1320;48.128;11.592;2022-12-20T16:24:46;12.88;;;7.65;;
2620;SDS011;1320;48.128;11.592;2022-12-20T16:27:11;6.10;;;4.90;;
2620;SDS011;1320;48.128;11.592;2022-12-20T16:29:37;5.00;;;4.37;;
2620;SDS011;1320;48.128;11.592;2022-12-20T16:32:08;4.80;;;4.07;;
2620;SDS011;1320;48.128;11.592;2022-12-20T16:34:41;6.88;;;6.15;;
2620;SDS011;1320;48.128;11.592;2022-12-20T16:37:07;5.10;;;4.60;;
2620;SDS011;1320;48.128;11.592;2022-12-20T16:39:32;5.80;;;5.20;;
2620;SDS011;1320;48.128;11.592;2022-12-20T16:41:58;10.07;;;4.17;;
2620;SDS011;1320;48.128;11.592;2022-12-20T16:44:25;6.87;;;5.40;;
2620;SDS011;1320;48.128;11.592;2022-12-20T16:46:51;6.60;;;4.77;;
2620;SDS011;1320;48.128;11.592;2022-12-20T16:49:16;4.90;;;3.97;;
2620;SDS011;1320;48.128;11.592;2022-12-20T16:51:43;7.90;;;4.77;;
2620;SDS011;1320;48.128;11.592;2022-12-20T16:54:14;6.43;;;4.60;;
2620;SDS011;1320;48.128;11.592;2022-12-20T16:56:44;7.93;;;4.45;;
2620;SDS011;1320;48.128;11.592;2022-12-20T16:59:15;7.07;;;5.03;;
2620;SDS011;1320;48.128;11.592;2022-12-20T17:01:41;5.93;;;5.30;;
2620;SDS011;1320;48.128;11.592;2022-12-20T17:04:12;5.15;;;4.65;;
2620;SDS011;1320;48.128;11.592;2022-12-20T17:06:39;6.35;;;4.00;;
2620;SDS011;1320;48.128;11.592;2022-12-20T17:09:06;8.05;;;5.18;;
2620;SDS011;1320;48.128;11.592;2022-12-20T17:11:32;6.70;;;5.43;;
2620;SDS011;1320;48.128;11.592;2022-12-20T17:13:58;4.90;;;4.33;;
2620;SDS011;1320;48.128;11.592;2022-12-20T17:16:24;7.07;;;4.70;;
2620;SDS011;1320;48.128;11.592;2022-12-20T17:18:51;7.28;;;5.40;;
2620;SDS011;1320;48.128;11.592;2022-12-20T17:23:45;7.30;;;5.45;;
2620;SDS011;1320;48.128;11.592;2022-12-20T17:26:14;8.48;;;6.22;;
2620;SDS011;1320;48.128;11.592;2022-12-20T17:28:42;6.82;;;5.78;;
2620;SDS011;1320;48.128;11.592;2022-12-20T17:33:58;8.52;;;5.10;;